首页
METAR-TAF:

METAR-TAF

机场 :

石油平台

Troll C, 挪威

纬度: 60-53-09N, 经度: 3-36-35E, 海拔: 20米

当前天气观测

该预报发布于32分钟前的00:20 UTC
风速8节,风向东南
温度 7°C
湿度 76%
气压 1015 hPa
能见度10公里或以上

METAR: ENQC 180020Z AUTO 14008KT 9999NDV BKN130/// 07/03 Q1015 W///S4

时间: 01:52 (00:52 UTC)


TAF: 丢失

超过4000个机场的气象观测和天气预报(METAR&TAF报告)。

可查询的气象台以黄色和红色小点在地图上表示。

将鼠标移到小点上方,可查看气象台名称。

然后点击查看天气观测和预报。

如需切换地图:点击带黑十字的绿色按钮放大地图;点击带横线的绿色按钮缩小地图;或者点击绿色箭头查看邻近地区的地图。


METAR-TAF: